Time;durP1;ratioP1;P1;durP2;ratioP2;P2;SDS_P1;SDS_P2;PMS_P1;PMS_P2;Temp;Humidity;BMP_temperature;BMP_pressure;BME280_temperature;BME280_humidity;BME280_pressure;Samples;Min_cycle;Max_cycle;Signal;HPM_P1;HPM_P2
2022/10/25 00:01:03;;;;;;;13.38;9.68;;;;;;;12.43;81.15;100129.03;1980246;89;29812;-59
2022/10/25 00:04:06;;;;;;;18.17;9.13;;;;;;;12.35;81.21;100121.94;1980300;89;27815;-60
2022/10/25 00:07:08;;;;;;;15.18;10.10;;;;;;;12.25;81.33;100114.91;1975112;90;28727;-60
2022/10/25 00:10:10;;;;;;;16.60;9.73;;;;;;;12.15;81.24;100118.61;2008518;88;31075;-59
2022/10/25 00:13:11;;;;;;;15.85;9.48;;;;;;;12.07;81.33;100124.93;1985892;89;33042;-59
2022/10/25 00:16:15;;;;;;;19.98;11.55;;;;;;;11.97;81.34;100123.22;1975241;90;29344;-60
2022/10/25 00:19:17;;;;;;;15.35;9.28;;;;;;;11.88;81.34;100122.41;2008607;88;27725;-60
2022/10/25 00:22:18;;;;;;;14.50;9.08;;;;;;;11.80;81.42;100122.84;1992065;89;29903;-60
2022/10/25 00:25:19;;;;;;;16.67;10.75;;;;;;;11.72;81.40;100129.14;1980548;89;32233;-60
2022/10/25 00:28:21;;;;;;;15.08;11.65;;;;;;;11.63;81.58;100125.17;2071369;85;33406;-60
2022/10/25 00:31:24;;;;;;;20.27;13.28;;;;;;;11.58;82.00;100125.89;2082375;85;29386;-59
2022/10/25 00:34:25;;;;;;;14.10;12.55;;;;;;;11.52;82.03;100129.80;2091516;85;27811;-60
2022/10/25 00:37:27;;;;;;;16.70;11.03;;;;;;;11.46;82.03;100129.67;2091328;85;29936;-60
2022/10/25 00:40:29;;;;;;;15.58;10.68;;;;;;;11.39;81.94;100125.13;2091232;85;31044;-59
2022/10/25 00:43:46;;;;;;;15.70;10.58;;;;;;;11.31;81.88;100126.02;2091568;85;34104;-61
2022/10/25 00:46:48;;;;;;;17.00;10.40;;;;;;;11.25;82.00;100125.89;2091461;85;29382;-60
2022/10/25 00:50:18;;;;;;;19.40;11.95;;;;;;;11.16;81.86;100133.57;2091694;85;27593;-60
2022/10/25 00:53:31;;;;;;;14.43;11.60;;;;;;;11.07;81.88;100133.14;2085328;85;28713;-60
2022/10/25 00:56:36;;;;;;;19.23;10.70;;;;;;;11.00;82.11;100137.58;2086082;85;31037;-61
2022/10/25 00:59:37;;;;;;;18.82;11.57;;;;;;;10.92;82.12;100133.97;2086160;85;32973;-60
2022/10/25 01:02:39;;;;;;;13.08;10.53;;;;;;;10.87;82.31;100132.86;2086138;85;29420;-60
2022/10/25 01:05:41;;;;;;;15.80;10.28;;;;;;;10.81;82.20;100142.58;2085932;85;27736;-60
2022/10/25 01:08:44;;;;;;;16.60;10.40;;;;;;;10.75;82.29;100137.53;2086059;85;29957;-60
2022/10/25 01:11:45;;;;;;;14.90;10.93;;;;;;;10.71;82.44;100135.96;2085972;85;31398;-60
2022/10/25 01:14:49;;;;;;;17.05;11.57;;;;;;;10.64;82.34;100138.98;2086220;85;33373;-60
2022/10/25 01:18:02;;;;;;;12.55;10.00;;;;;;;10.58;82.36;100130.41;2062425;85;30113;-61
2022/10/25 01:21:38;;;;;;;13.20;10.32;;;;;;;10.52;82.36;100137.41;2085831;85;27593;-61
2022/10/25 01:25:04;;;;;;;17.32;11.40;;;;;;;10.46;82.43;100122.05;2086146;85;28658;-60
2022/10/25 01:28:40;;;;;;;14.20;10.65;;;;;;;10.39;82.42;100117.97;2086212;85;31445;-60
2022/10/25 01:31:48;;;;;;;9.20;7.45;;;;;;;10.30;82.43;100116.60;2086198;84;34832;-60
2022/10/25 01:35:17;;;;;;;12.23;9.43;;;;;;;10.24;82.52;100118.25;2052881;86;30538;-64
2022/10/25 01:38:58;;;;;;;13.38;10.63;;;;;;;10.18;82.52;100116.75;2067635;86;28343;-60
2022/10/25 01:42:32;;;;;;;12.25;10.10;;;;;;;10.12;82.61;100125.57;2068662;86;29058;-60
2022/10/25 01:46:14;;;;;;;18.73;13.15;;;;;;;10.06;82.95;100130.77;2068240;86;31413;-61
2022/10/25 01:49:33;;;;;;;18.45;11.57;;;;;;;10.03;83.00;100134.92;2068199;86;34391;-60
2022/10/25 01:52:34;;;;;;;18.07;12.25;;;;;;;9.97;83.02;100128.08;2068098;86;29728;-60
2022/10/25 01:55:45;;;;;;;13.78;11.38;;;;;;;9.93;83.00;100121.63;2068504;86;27689;-62
2022/10/25 01:59:21;;;;;;;14.80;11.50;;;;;;;9.88;83.04;100129.41;2067688;86;28083;-61
2022/10/25 02:02:34;;;;;;;15.40;11.05;;;;;;;9.85;83.01;100128.66;2085449;84;31090;-60
2022/10/25 02:05:46;;;;;;;16.73;9.88;;;;;;;9.79;83.05;100127.65;2072894;85;33418;-63
2022/10/25 02:09:14;;;;;;;15.85;10.00;;;;;;;9.74;83.10;100131.89;2086888;84;30448;-61
2022/10/25 02:12:38;;;;;;;15.90;10.78;;;;;;;9.69;83.19;100124.07;2033418;87;27544;-61
2022/10/25 02:15:43;;;;;;;14.43;10.25;;;;;;;9.65;83.20;100130.53;2068380;86;29939;-61
2022/10/25 02:18:50;;;;;;;14.73;10.13;;;;;;;9.61;83.25;100135.63;2068088;86;27721;-61
2022/10/25 02:21:52;;;;;;;16.77;9.90;;;;;;;9.57;83.23;100135.37;2068384;86;35002;-63
2022/10/25 02:24:54;;;;;;;16.17;10.75;;;;;;;9.53;83.33;100140.02;2068572;86;29347;-61
2022/10/25 02:27:57;;;;;;;17.02;10.43;;;;;;;9.51;83.35;100135.69;2043506;86;28271;-60
2022/10/25 02:30:59;;;;;;;18.50;11.93;;;;;;;9.48;83.45;100135.83;2068241;86;29912;-61
2022/10/25 02:34:01;;;;;;;14.55;10.90;;;;;;;9.47;83.62;100136.77;2119883;83;31897;-61
2022/10/25 02:37:03;;;;;;;14.03;9.88;;;;;;;9.43;83.54;100134.23;2108263;84;33057;-62
2022/10/25 02:40:06;;;;;;;14.53;10.48;;;;;;;9.42;83.61;100134.31;2075849;85;29925;-62
2022/10/25 02:43:07;;;;;;;15.85;11.68;;;;;;;9.39;83.62;100134.46;2074076;85;27689;-61
2022/10/25 02:46:13;;;;;;;16.60;11.63;;;;;;;9.36;83.61;100132.77;2110684;83;29278;-61
2022/10/25 02:49:14;;;;;;;18.27;11.65;;;;;;;9.33;83.64;100138.30;2110376;84;31056;-61
2022/10/25 02:52:16;;;;;;;20.80;13.40;;;;;;;9.31;83.69;100140.62;2110743;84;33025;-61
2022/10/25 02:55:17;;;;;;;19.50;12.90;;;;;;;9.27;83.75;100140.76;2110474;84;30533;-61
2022/10/25 02:58:18;;;;;;;22.90;12.85;;;;;;;9.24;83.76;100140.93;2110835;84;27717;-61
2022/10/25 03:01:20;;;;;;;19.23;11.83;;;;;;;9.23;83.85;100143.20;2110880;84;29061;-61
2022/10/25 03:04:21;;;;;;;17.95;12.45;;;;;;;9.21;83.80;100142.85;2110737;84;31381;-61
2022/10/25 03:07:23;;;;;;;18.67;12.20;;;;;;;9.18;83.91;100143.88;2110370;84;35127;-61
2022/10/25 03:10:25;;;;;;;14.87;11.43;;;;;;;9.18;83.99;100143.02;2110758;84;29411;-60
2022/10/25 03:13:27;;;;;;;16.60;12.18;;;;;;;9.16;84.02;100137.73;2110841;84;28247;-62
2022/10/25 03:16:28;;;;;;;17.65;12.37;;;;;;;9.17;84.09;100143.47;2110588;84;30788;-60
2022/10/25 03:19:29;;;;;;;18.65;12.25;;;;;;;9.17;84.12;100143.96;2110970;84;31034;-61
2022/10/25 03:22:30;;;;;;;20.37;13.75;;;;;;;9.18;84.36;100144.36;2110298;84;34149;-61
2022/10/25 03:25:32;;;;;;;16.12;13.05;;;;;;;9.19;84.56;100138.93;2126740;83;30460;-62
2022/10/25 03:28:33;;;;;;;19.52;15.18;;;;;;;9.24;84.78;100134.70;2126806;83;28321;-61
2022/10/25 03:31:34;;;;;;;21.00;15.35;;;;;;;9.27;84.93;100139.42;2126703;83;29813;-62
2022/10/25 03:34:36;;;;;;;18.15;14.15;;;;;;;9.31;85.01;100146.85;2126291;83;31370;-61
2022/10/25 03:37:37;;;;;;;23.05;15.50;;;;;;;9.34;85.02;100139.14;2126694;83;32978;-61
2022/10/25 03:40:39;;;;;;;18.05;13.68;;;;;;;9.34;85.00;100140.48;2126752;83;29751;-61
2022/10/25 03:43:43;;;;;;;19.32;14.40;;;;;;;9.34;85.04;100142.70;2126825;83;27685;-61
2022/10/25 03:46:44;;;;;;;17.50;13.83;;;;;;;9.34;84.96;100140.03;2126532;83;33670;-61
2022/10/25 03:49:46;;;;;;;16.48;13.03;;;;;;;9.34;85.01;100141.37;2126483;83;31400;-61
2022/10/25 03:52:47;;;;;;;19.87;15.18;;;;;;;9.33;84.89;100140.08;2126631;83;34105;-60
2022/10/25 03:55:49;;;;;;;20.77;13.72;;;;;;;9.32;84.90;100131.66;2126620;83;29795;-61
2022/10/25 03:58:50;;;;;;;19.70;14.60;;;;;;;9.28;84.79;100130.47;2074254;85;28355;-60
2022/10/25 04:01:51;;;;;;;25.90;15.83;;;;;;;9.26;84.81;100131.48;2110547;84;29120;-60
2022/10/25 04:04:53;;;;;;;23.73;15.20;;;;;;;9.23;84.78;100131.63;2110457;84;32082;-61
2022/10/25 04:07:54;;;;;;;22.98;14.78;;;;;;;9.20;84.65;100135.77;2110676;84;32998;-61
2022/10/25 04:10:56;;;;;;;22.07;14.23;;;;;;;9.17;84.72;100134.61;2110689;84;29761;-62
2022/10/25 04:13:57;;;;;;;21.42;14.13;;;;;;;9.15;84.78;100139.16;2110616;84;28250;-61
2022/10/25 04:16:59;;;;;;;25.80;15.80;;;;;;;9.11;84.78;100133.05;2110533;84;29932;-62
2022/10/25 04:20:00;;;;;;;21.12;14.75;;;;;;;9.08;84.79;100142.09;2110832;84;31490;-64
2022/10/25 04:23:01;;;;;;;24.45;15.53;;;;;;;9.08;84.78;100142.58;2110716;84;32389;-60
2022/10/25 04:26:03;;;;;;;30.32;15.83;;;;;;;9.06;84.82;100143.97;2110543;84;29518;-60
2022/10/25 04:29:05;;;;;;;24.90;15.80;;;;;;;9.06;84.94;100143.11;2110676;84;27684;-60
2022/10/25 04:32:07;;;;;;;21.45;14.68;;;;;;;9.05;85.00;100140.05;2110431;84;28746;-60
2022/10/25 04:35:09;;;;;;;23.45;18.05;;;;;;;9.06;85.12;100141.30;2106378;83;32055;-60
2022/10/25 04:38:10;;;;;;;28.75;19.40;;;;;;;9.07;85.36;100154.20;2106592;84;33424;-60
2022/10/25 04:41:12;;;;;;;25.57;18.35;;;;;;;9.07;85.42;100152.38;2106701;84;29681;-60
2022/10/25 04:44:13;;;;;;;30.23;17.85;;;;;;;9.10;85.67;100149.58;2106884;84;27659;-59
2022/10/25 04:47:15;;;;;;;20.85;16.50;;;;;;;9.14;85.84;100153.45;2106728;84;29999;-60
2022/10/25 04:50:16;;;;;;;25.35;19.30;;;;;;;9.16;85.80;100144.41;2106436;84;31812;-60
2022/10/25 04:53:17;;;;;;;26.80;20.15;;;;;;;9.18;85.82;100147.88;2106755;84;34100;-61
2022/10/25 04:56:19;;;;;;;33.48;21.07;;;;;;;9.22;85.97;100148.59;2106792;84;29691;-60
2022/10/25 04:59:20;;;;;;;30.68;21.50;;;;;;;9.24;85.98;100142.27;2106804;84;27675;-60
2022/10/25 05:02:22;;;;;;;30.85;22.70;;;;;;;9.27;86.01;100152.78;2106845;84;29028;-60
2022/10/25 05:05:25;;;;;;;39.78;23.60;;;;;;;9.29;85.99;100151.40;2106569;84;31504;-60
2022/10/25 05:08:26;;;;;;;37.73;24.65;;;;;;;9.33;86.01;100157.46;2106668;84;32971;-60
2022/10/25 05:11:27;;;;;;;32.93;22.85;;;;;;;9.35;86.03;100154.25;2106379;84;30543;-60
2022/10/25 05:14:31;;;;;;;33.30;22.32;;;;;;;9.37;86.00;100157.23;2106367;84;28272;-61
2022/10/25 05:17:32;;;;;;;30.20;22.62;;;;;;;9.40;86.06;100162.93;2107092;84;28660;-60
2022/10/25 05:20:33;;;;;;;30.05;20.35;;;;;;;9.41;86.12;100165.52;2106745;84;31395;-60
2022/10/25 05:23:34;;;;;;;29.18;20.85;;;;;;;9.43;86.13;100170.33;2150347;82;33324;-60
2022/10/25 05:26:36;;;;;;;31.55;20.88;;;;;;;9.46;86.18;100173.31;2150349;82;29695;-60
2022/10/25 05:29:37;;;;;;;27.87;20.62;;;;;;;9.47;86.11;100171.05;2150213;82;27695;-60
2022/10/25 05:32:39;;;;;;;28.10;19.80;;;;;;;9.48;86.11;100169.25;2150303;82;28675;-60
2022/10/25 05:35:40;;;;;;;29.98;20.23;;;;;;;9.51;86.34;100177.14;2150525;82;31433;-60
2022/10/25 05:38:42;;;;;;;30.37;20.50;;;;;;;9.54;86.43;100179.19;2150482;82;33355;-61
2022/10/25 05:41:43;;;;;;;30.55;20.92;;;;;;;9.58;86.46;100186.13;2121770;82;29393;-61
2022/10/25 05:44:44;;;;;;;27.70;18.82;;;;;;;9.63;86.52;100183.69;2150685;82;27654;-60
2022/10/25 05:47:46;;;;;;;27.15;18.17;;;;;;;9.64;86.50;100175.61;2150159;82;29097;-60
2022/10/25 05:50:48;;;;;;;23.83;16.50;;;;;;;9.66;86.45;100177.74;2150381;82;31029;-68
2022/10/25 05:53:53;;;;;;;26.95;15.68;;;;;;;9.70;86.58;100173.95;2150433;82;33146;-60
2022/10/25 05:56:54;;;;;;;23.65;15.28;;;;;;;9.76;86.74;100182.18;2150582;82;33187;-60
2022/10/25 05:59:55;;;;;;;22.52;14.98;;;;;;;9.81;86.81;100188.64;2150371;82;27744;-60
2022/10/25 06:03:00;;;;;;;23.62;14.55;;;;;;;9.86;86.90;100187.92;2150408;82;29039;-60
2022/10/25 06:06:04;;;;;;;18.02;13.90;;;;;;;9.91;86.97;100192.59;2149840;82;31003;-60
2022/10/25 06:09:07;;;;;;;18.05;14.53;;;;;;;9.96;87.00;100200.39;2150542;82;33760;-60
2022/10/25 06:12:08;;;;;;;14.87;12.68;;;;;;;10.00;86.94;100206.00;2150278;82;29364;-60
2022/10/25 06:15:10;;;;;;;19.23;13.15;;;;;;;10.03;86.95;100209.87;2150053;82;27750;-60
2022/10/25 06:18:11;;;;;;;16.30;11.88;;;;;;;10.06;86.99;100215.08;2150206;82;28686;-60
2022/10/25 06:21:20;;;;;;;15.85;11.53;;;;;;;10.11;87.11;100218.38;2150294;82;31403;-61
2022/10/25 06:24:21;;;;;;;22.52;12.93;;;;;;;10.17;87.19;100222.09;2150034;82;33750;-60
2022/10/25 06:27:23;;;;;;;14.30;12.18;;;;;;;10.21;87.17;100228.64;2156393;81;29333;-62
2022/10/25 06:30:24;;;;;;;12.30;10.90;;;;;;;10.24;87.02;100235.19;2187400;81;27724;-63
2022/10/25 06:33:25;;;;;;;17.30;11.40;;;;;;;10.28;87.07;100230.05;2187708;81;29446;-63
2022/10/25 06:36:27;;;;;;;15.85;11.50;;;;;;;10.30;87.00;100234.87;2187981;81;31473;-61
2022/10/25 06:39:28;;;;;;;14.58;11.03;;;;;;;10.33;87.03;100240.96;2187516;81;34295;-63
2022/10/25 06:42:29;;;;;;;17.65;11.68;;;;;;;10.36;87.11;100246.63;2187905;81;29776;-63
2022/10/25 06:45:31;;;;;;;16.27;10.72;;;;;;;10.41;87.21;100245.97;2187811;81;27582;-60
2022/10/25 06:48:32;;;;;;;13.10;11.18;;;;;;;10.47;87.37;100248.80;2187571;81;29535;-63
2022/10/25 06:51:33;;;;;;;15.50;11.48;;;;;;;10.54;87.53;100248.88;2187438;81;31460;-60
2022/10/25 06:54:34;;;;;;;18.65;12.07;;;;;;;10.66;87.75;100247.88;2171562;81;34242;-61
2022/10/25 06:57:36;;;;;;;20.12;12.35;;;;;;;10.76;87.91;100254.49;2150343;82;29317;-63
2022/10/25 07:00:37;;;;;;;15.45;12.13;;;;;;;10.88;88.15;100255.68;2150416;82;28315;-61
2022/10/25 07:03:39;;;;;;;18.40;12.58;;;;;;;11.01;88.39;100254.55;2150315;82;29303;-62
2022/10/25 07:06:40;;;;;;;16.25;12.10;;;;;;;11.18;88.82;100256.36;2150132;82;31748;-64
2022/10/25 07:09:41;;;;;;;23.12;13.85;;;;;;;11.41;89.48;100257.80;2150166;82;33314;-60
2022/10/25 07:12:43;;;;;;;27.73;14.30;;;;;;;11.69;89.99;100257.63;2165048;81;29713;-61
2022/10/25 07:15:44;;;;;;;28.05;12.40;;;;;;;12.05;90.75;100257.06;2152405;81;27688;-60
2022/10/25 07:18:47;;;;;;;38.75;17.85;;;;;;;12.38;90.99;100252.91;2153403;81;28702;-60
2022/10/25 07:21:49;;;;;;;35.98;14.15;;;;;;;12.70;90.85;100250.14;2153320;81;31887;-60
2022/10/25 07:24:50;;;;;;;23.30;13.98;;;;;;;12.99;90.83;100251.55;2151112;81;33752;-60
2022/10/25 07:27:52;;;;;;;44.23;19.77;;;;;;;13.26;90.59;100248.61;2152283;81;29337;-60
2022/10/25 07:30:53;;;;;;;30.17;16.07;;;;;;;13.46;90.12;100256.34;2154043;81;27657;-60
2022/10/25 07:33:58;;;;;;;32.90;19.17;;;;;;;13.67;90.08;100259.52;2153287;81;30101;-60
2022/10/25 07:36:59;;;;;;;46.13;19.75;;;;;;;13.85;89.68;100259.30;2152785;81;31085;-61
2022/10/25 07:40:01;;;;;;;38.60;21.68;;;;;;;14.03;89.55;100257.27;2140136;81;34218;-60
2022/10/25 07:43:02;;;;;;;50.20;26.12;;;;;;;14.21;89.46;100262.42;2153072;81;29408;-60
2022/10/25 07:46:05;;;;;;;43.95;23.87;;;;;;;14.35;89.09;100265.53;2153398;81;27770;-61
2022/10/25 07:49:06;;;;;;;30.12;18.00;;;;;;;14.51;89.08;100259.50;2153015;81;29060;-62
2022/10/25 07:52:07;;;;;;;24.75;14.05;;;;;;;14.71;89.06;100260.91;2151975;81;31072;-62
2022/10/25 07:55:09;;;;;;;19.65;11.80;;;;;;;14.88;88.72;100261.09;2151602;81;32987;-62
2022/10/25 07:58:11;;;;;;;15.58;9.73;;;;;;;15.05;88.75;100257.72;2153871;81;29595;-61
2022/10/25 08:01:19;;;;;;;16.93;9.25;;;;;;;15.22;88.29;100267.83;2165857;81;27649;-61
2022/10/25 08:04:21;;;;;;;12.98;8.70;;;;;;;15.35;87.69;100263.30;2206704;80;29232;-61
2022/10/25 08:07:22;;;;;;;13.05;7.80;;;;;;;15.46;87.51;100263.42;2187748;81;32075;-63
2022/10/25 08:10:24;;;;;;;18.17;7.65;;;;;;;15.36;87.08;100231.28;2188048;81;33296;-62
2022/10/25 08:13:25;;;;;;;14.70;7.45;;;;;;;15.65;87.01;100272.88;2188085;81;29538;-62
2022/10/25 08:16:26;;;;;;;14.50;6.97;;;;;;;15.72;86.62;100278.73;2188189;81;28081;-61
2022/10/25 08:19:27;;;;;;;10.20;6.50;;;;;;;15.78;86.62;100273.75;2187767;81;29062;-61
2022/10/25 08:22:28;;;;;;;9.43;5.92;;;;;;;15.87;86.35;100273.61;2188009;81;31447;-61
2022/10/25 08:25:30;;;;;;;10.13;5.30;;;;;;;15.97;86.00;100272.92;2161255;81;33852;-62
2022/10/25 08:28:31;;;;;;;8.53;4.87;;;;;;;16.06;85.63;100270.89;2150321;82;29944;-61
2022/10/25 08:31:32;;;;;;;8.18;4.22;;;;;;;16.16;85.40;100270.61;2150313;82;27679;-61
2022/10/25 08:34:34;;;;;;;6.47;4.35;;;;;;;16.23;85.00;100267.80;2145603;82;29045;-61
2022/10/25 08:37:35;;;;;;;4.55;3.60;;;;;;;16.29;84.62;100271.04;2134899;83;31443;-61
2022/10/25 08:41:08;;;;;;;8.65;4.30;;;;;;;16.35;84.57;100270.59;2134974;83;32984;-62
2022/10/25 08:44:40;;;;;;;8.88;4.12;;;;;;;16.36;84.07;100268.27;2134519;82;29752;-61
2022/10/25 08:47:44;;;;;;;7.03;3.45;;;;;;;16.47;84.13;100276.91;2134623;82;27680;-64
2022/10/25 08:50:50;;;;;;;7.53;3.80;;;;;;;16.63;84.07;100269.36;2134663;83;29126;-61
2022/10/25 08:53:56;;;;;;;7.62;3.40;;;;;;;16.79;83.74;100281.75;2134333;83;31105;-61
2022/10/25 08:57:18;;;;;;;10.55;3.37;;;;;;;16.94;83.27;100278.34;2134781;82;33013;-62
2022/10/25 09:00:22;;;;;;;6.22;3.50;;;;;;;17.11;82.66;100281.14;2134944;81;29362;-63
2022/10/25 09:03:25;;;;;;;12.03;2.95;;;;;;;17.24;82.09;100276.97;2134722;83;27731;-62
2022/10/25 09:06:50;;;;;;;5.85;3.02;;;;;;;17.35;81.56;100283.78;2134644;82;29093;-62
2022/10/25 09:10:36;;;;;;;6.10;3.00;;;;;;;17.43;81.31;100283.17;2120283;83;31510;-62
2022/10/25 09:14:00;;;;;;;5.42;2.72;;;;;;;17.49;80.75;100279.11;2134683;82;37277;-61
2022/10/25 09:17:25;;;;;;;6.05;2.77;;;;;;;17.55;80.23;100271.36;2134466;83;30553;-62
2022/10/25 09:20:31;;;;;;;4.03;1.50;;;;;;;17.60;79.74;100277.28;2134866;83;27696;-69
2022/10/25 09:23:33;;;;;;;5.22;1.75;;;;;;;17.66;79.56;100273.22;2134735;83;29866;-72
2022/10/25 09:26:42;;;;;;;6.00;2.10;;;;;;;17.76;79.35;100276.05;2134634;82;31016;-66
2022/10/25 09:30:01;;;;;;;7.10;3.02;;;;;;;17.82;78.34;100278.75;2134436;83;35149;-65
2022/10/25 09:33:12;;;;;;;8.05;2.10;;;;;;;17.83;77.62;100288.61;2063383;85;32784;-66
2022/10/25 09:36:14;;;;;;;10.95;2.60;;;;;;;17.85;77.37;100289.35;2084953;84;27732;-60
2022/10/25 09:39:30;;;;;;;6.58;2.40;;;;;;;17.83;76.89;100291.32;2121474;83;28824;-61
2022/10/25 09:42:40;;;;;;;6.95;2.40;;;;;;;17.87;77.15;100289.59;2075747;85;32251;-58
2022/10/25 09:45:56;;;;;;;6.67;2.45;;;;;;;17.94;76.81;100290.45;2076485;85;33808;-59
2022/10/25 09:49:24;;;;;;;5.12;2.45;;;;;;;17.98;76.40;100287.87;2076570;84;31656;-60
2022/10/25 09:53:02;;;;;;;7.60;2.62;;;;;;;17.97;76.32;100292.42;2071883;84;27715;-64
2022/10/25 09:56:04;;;;;;;5.85;2.10;;;;;;;17.98;76.00;100298.24;2100398;84;29317;-61
2022/10/25 09:59:07;;;;;;;5.62;2.55;;;;;;;17.96;75.26;100290.69;2100129;84;31064;-60
2022/10/25 10:02:19;;;;;;;7.28;2.33;;;;;;;17.91;75.22;100291.07;2124200;83;34175;-61
2022/10/25 10:05:21;;;;;;;6.47;2.77;;;;;;;17.91;75.28;100295.61;2100372;83;30606;-60
2022/10/25 10:08:24;;;;;;;6.75;2.17;;;;;;;17.92;75.21;100289.20;2128677;81;28374;-60
2022/10/25 10:11:26;;;;;;;8.53;2.55;;;;;;;17.92;75.17;100290.56;2176328;81;29488;-59
2022/10/25 10:14:51;;;;;;;4.30;2.10;;;;;;;17.93;74.92;100290.94;2128457;83;31448;-62
2022/10/25 10:18:29;;;;;;;6.97;2.25;;;;;;;17.94;74.70;100294.52;2113952;83;34141;-59
2022/10/25 10:21:33;;;;;;;7.33;2.40;;;;;;;17.93;74.72;100292.29;2085270;85;30594;-59
2022/10/25 10:24:38;;;;;;;5.23;2.50;;;;;;;17.91;74.32;100289.72;2072381;84;27539;-60
2022/10/25 10:27:40;;;;;;;5.12;2.12;;;;;;;17.87;74.12;100287.38;2110367;82;29573;-61
2022/10/25 10:30:41;;;;;;;9.60;3.17;;;;;;;17.83;73.70;100291.32;2103585;84;32208;-61
2022/10/25 10:33:50;;;;;;;7.20;2.00;;;;;;;17.80;73.63;100293.77;2124508;83;33023;-59
2022/10/25 10:37:23;;;;;;;10.48;2.08;;;;;;;17.77;73.21;100288.62;2102819;84;29812;-58
2022/10/25 10:40:24;;;;;;;6.37;2.25;;;;;;;17.78;73.31;100294.41;2103558;84;27679;-58
2022/10/25 10:43:32;;;;;;;5.55;2.02;;;;;;;17.79;73.14;100293.90;2103330;84;28651;-58
2022/10/25 10:46:34;;;;;;;5.12;1.85;;;;;;;17.77;72.85;100294.88;2102756;84;31066;-59
2022/10/25 10:49:40;;;;;;;8.78;2.30;;;;;;;17.76;72.55;100301.80;2106565;84;33423;-60
2022/10/25 10:52:45;;;;;;;4.30;2.02;;;;;;;17.78;72.87;100307.95;2149669;82;30559;-59
2022/10/25 10:55:52;;;;;;;6.35;1.92;;;;;;;17.75;72.46;100302.78;2149941;82;27630;-61
2022/10/25 10:58:55;;;;;;;3.12;2.10;;;;;;;17.72;72.19;100301.66;2150042;82;28665;-60
2022/10/25 11:01:57;;;;;;;5.87;2.45;;;;;;;17.73;72.28;100302.88;2150125;82;31429;-66
2022/10/25 11:04:58;;;;;;;6.75;2.50;;;;;;;17.73;72.39;100304.23;2150177;82;32688;-60
2022/10/25 11:08:14;;;;;;;6.28;2.30;;;;;;;17.71;72.02;100304.00;2150211;82;30420;-63
2022/10/25 11:11:24;;;;;;;6.58;2.33;;;;;;;17.65;71.56;100309.42;2149361;82;27619;-65
2022/10/25 11:14:26;;;;;;;9.50;2.35;;;;;;;17.58;71.31;100310.88;2149646;81;29422;-66
2022/10/25 11:17:31;;;;;;;6.25;2.35;;;;;;;17.49;71.24;100302.14;2121375;82;32159;-66
2022/10/25 11:20:50;;;;;;;10.38;2.87;;;;;;;17.43;71.14;100307.05;2149810;82;33325;-64
2022/10/25 11:24:03;;;;;;;8.63;2.98;;;;;;;17.34;71.17;100305.07;2145503;81;30197;-63
2022/10/25 11:27:52;;;;;;;4.37;2.60;;;;;;;17.26;70.86;100312.44;2145096;82;27603;-63
2022/10/25 11:31:18;;;;;;;5.95;2.42;;;;;;;17.16;70.88;100308.22;2150254;82;29095;-63
2022/10/25 11:34:52;;;;;;;6.60;2.80;;;;;;;17.08;70.83;100309.80;2135584;82;32189;-63
2022/10/25 11:38:02;;;;;;;5.72;3.25;;;;;;;17.03;70.70;100314.69;2149988;82;34146;-63
2022/10/25 11:41:40;;;;;;;7.60;2.08;;;;;;;17.00;70.97;100301.77;2116814;82;29380;-63
2022/10/25 11:44:47;;;;;;;5.70;2.40;;;;;;;17.04;70.88;100312.36;2150391;82;27622;-63
2022/10/25 11:47:57;;;;;;;8.60;2.60;;;;;;;17.12;70.96;100301.82;2150047;82;29146;-63
2022/10/25 11:51:48;;;;;;;4.20;2.17;;;;;;;17.20;71.15;100304.78;2149883;82;31837;-64
2022/10/25 11:55:30;;;;;;;7.10;2.33;;;;;;;17.31;70.32;100316.13;2149964;82;33023;-65
2022/10/25 11:58:40;;;;;;;8.10;2.08;;;;;;;17.37;70.39;100308.89;2150046;82;29798;-64
2022/10/25 12:02:34;;;;;;;5.17;1.98;;;;;;;17.45;70.02;100303.72;2149916;82;27747;-63
2022/10/25 12:06:10;;;;;;;10.18;2.40;;;;;;;17.56;69.64;100302.00;2113636;84;29436;-62
2022/10/25 12:09:32;;;;;;;5.33;1.70;;;;;;;17.71;69.50;100299.94;2146108;82;31435;-63
2022/10/25 12:12:45;;;;;;;4.58;2.33;;;;;;;17.85;69.70;100297.48;2149580;82;32318;-64
2022/10/25 12:15:50;;;;;;;5.58;2.20;;;;;;;17.96;69.21;100300.66;2150368;82;29361;-64
2022/10/25 12:19:15;;;;;;;7.37;2.65;;;;;;;18.10;69.23;100296.87;2150128;82;27757;-61
2022/10/25 12:22:25;;;;;;;6.10;1.95;;;;;;;18.23;69.07;100300.29;2147218;82;29555;-62
2022/10/25 12:25:50;;;;;;;6.25;2.35;;;;;;;18.37;68.44;100298.66;2150263;82;31430;-63
2022/10/25 12:29:06;;;;;;;7.60;2.17;;;;;;;18.48;68.51;100296.41;2147319;82;30486;-60
2022/10/25 12:32:21;;;;;;;2.58;1.57;;;;;;;18.55;68.15;100297.27;2149975;82;29119;-61
2022/10/25 12:35:29;;;;;;;4.45;2.25;;;;;;;18.57;67.21;100294.78;2149014;81;28483;-63
2022/10/25 12:38:37;;;;;;;5.62;2.00;;;;;;;18.58;66.98;100298.37;2139939;83;28279;-65
2022/10/25 12:41:43;;;;;;;5.25;2.00;;;;;;;18.58;67.30;100294.30;2139578;83;31718;-65
2022/10/25 12:45:31;;;;;;;4.20;1.70;;;;;;;18.62;66.92;100298.46;2139870;83;33871;-64
2022/10/25 12:49:14;;;;;;;4.17;1.80;;;;;;;18.69;67.16;100298.33;2140109;83;29352;-63
2022/10/25 12:52:26;;;;;;;4.03;2.10;;;;;;;18.75;67.24;100299.18;2126112;83;27626;-62
2022/10/25 12:55:36;;;;;;;4.95;1.70;;;;;;;18.77;66.72;100305.34;2139809;82;28671;-62
2022/10/25 12:58:58;;;;;;;6.22;1.87;;;;;;;18.82;66.56;100309.02;2140200;83;31430;-61
2022/10/25 13:02:34;;;;;;;5.62;2.17;;;;;;;18.87;66.61;100302.69;2031936;87;31100;-60
2022/10/25 13:06:00;;;;;;;4.15;1.80;;;;;;;18.88;65.68;100308.48;1937625;91;29460;-64
2022/10/25 13:09:08;;;;;;;5.90;1.95;;;;;;;18.92;66.26;100308.59;1901406;93;27722;-61
2022/10/25 13:12:22;;;;;;;6.05;2.02;;;;;;;18.96;66.12;100314.17;1901477;93;28823;-63
2022/10/25 13:15:23;;;;;;;7.90;2.10;;;;;;;18.97;65.87;100319.97;1901108;93;32141;-64
2022/10/25 13:18:44;;;;;;;5.25;2.05;;;;;;;18.96;65.35;100320.08;1913711;93;33403;-62
2022/10/25 13:22:00;;;;;;;8.93;2.67;;;;;;;18.91;65.26;100320.44;1910800;93;29510;-61
2022/10/25 13:25:06;;;;;;;12.10;2.30;;;;;;;18.89;65.40;100325.14;1913744;93;27779;-62
2022/10/25 13:28:18;;;;;;;5.12;2.27;;;;;;;18.85;65.02;100330.95;1913554;93;28681;-64
2022/10/25 13:31:36;;;;;;;5.40;2.40;;;;;;;18.81;65.11;100327.66;1894295;93;31955;-64
2022/10/25 13:34:37;;;;;;;8.08;2.65;;;;;;;18.74;65.27;100330.02;1913448;93;33066;-63
2022/10/25 13:37:41;;;;;;;6.25;2.95;;;;;;;18.67;65.13;100324.72;2017562;85;29705;-62
2022/10/25 13:40:42;;;;;;;6.60;2.92;;;;;;;18.62;65.30;100317.45;2106408;84;27699;-62
2022/10/25 13:43:59;;;;;;;14.93;5.47;;;;;;;18.57;65.29;100321.06;2096069;84;28671;-64
2022/10/25 13:47:01;;;;;;;18.17;6.22;;;;;;;18.50;65.36;100327.50;2106402;84;31123;-64
2022/10/25 13:50:32;;;;;;;10.43;3.72;;;;;;;18.43;65.27;100333.05;2150412;82;33017;-64
2022/10/25 13:53:41;;;;;;;9.08;3.25;;;;;;;18.37;65.30;100322.22;2147696;82;29509;-65
2022/10/25 13:56:51;;;;;;;7.03;2.83;;;;;;;18.28;65.47;100327.06;2150294;82;27579;-65
2022/10/25 14:00:00;;;;;;;6.60;2.20;;;;;;;18.20;65.31;100327.69;2149924;82;28574;-64
2022/10/25 14:03:08;;;;;;;6.95;2.40;;;;;;;18.12;65.63;100336.92;2149744;82;31076;-63
2022/10/25 14:06:33;;;;;;;6.62;2.52;;;;;;;18.06;65.86;100340.48;2149850;82;32999;-63
2022/10/25 14:09:35;;;;;;;9.15;2.45;;;;;;;18.02;66.03;100335.44;2149758;82;31444;-63
2022/10/25 14:12:37;;;;;;;5.30;2.90;;;;;;;17.96;66.04;100341.31;2150315;82;27687;-63
2022/10/25 14:15:47;;;;;;;4.53;2.85;;;;;;;17.91;66.18;100345.75;2150155;82;29034;-63
2022/10/25 14:18:50;;;;;;;6.45;2.62;;;;;;;17.86;66.23;100349.34;2149304;81;30518;-64
2022/10/25 14:21:53;;;;;;;6.97;2.58;;;;;;;17.78;66.01;100349.95;2149835;82;33052;-65
2022/10/25 14:24:55;;;;;;;8.03;3.20;;;;;;;17.70;66.13;100349.69;2150560;82;29337;-64
2022/10/25 14:28:25;;;;;;;4.05;2.22;;;;;;;17.65;66.37;100350.05;2150220;82;27612;-63